Time;durP1;ratioP1;P1;durP2;ratioP2;P2;SDS_P1;SDS_P2;PMS_P1;PMS_P2;Temp;Humidity;BMP_temperature;BMP_pressure;BME280_temperature;BME280_humidity;BME280_pressure;Samples;Min_cycle;Max_cycle;Signal;HPM_P1;HPM_P2
2021/12/14 00:01:01;;;;;;;18.03;11.97;;;;;;;4.13;100.00;100798.47;5077014;28;20199;-73
2021/12/14 00:03:31;;;;;;;22.37;12.23;;;;;;;4.17;100.00;100786.66;5086735;28;20714;-73
2021/12/14 00:05:58;;;;;;;19.97;10.73;;;;;;;4.03;100.00;100796.22;5081202;28;20198;-73
2021/12/14 00:08:31;;;;;;;18.80;11.80;;;;;;;4.01;100.00;100792.69;5091323;28;20190;-73
2021/12/14 00:11:24;;;;;;;21.77;11.77;;;;;;;4.00;100.00;100801.16;5090497;28;20194;-73
2021/12/14 00:13:57;;;;;;;23.87;13.93;;;;;;;4.18;100.00;100791.88;5091703;28;20281;-73
2021/12/14 00:16:24;;;;;;;26.40;13.40;;;;;;;3.90;100.00;100779.28;5086997;28;20273;-72
2021/12/14 00:18:51;;;;;;;23.07;12.07;;;;;;;3.90;100.00;100791.22;5071253;28;20613;-73
2021/12/14 00:21:29;;;;;;;27.30;15.17;;;;;;;4.10;100.00;100797.44;5070947;28;20614;-72
2021/12/14 00:24:06;;;;;;;19.77;11.43;;;;;;;4.10;100.00;100800.00;5082577;28;20204;-72
2021/12/14 00:26:36;;;;;;;25.10;13.40;;;;;;;4.26;100.00;100805.09;5076816;28;20194;-72
2021/12/14 00:29:03;;;;;;;21.67;13.00;;;;;;;4.08;100.00;100799.91;5089403;28;20213;-73
2021/12/14 00:31:30;;;;;;;28.67;16.77;;;;;;;4.07;100.00;100798.13;5090816;28;20240;-73
2021/12/14 00:34:03;;;;;;;22.93;14.17;;;;;;;3.97;100.00;100772.78;5082269;28;20621;-73
2021/12/14 00:36:31;;;;;;;22.17;13.80;;;;;;;4.14;100.00;100797.63;5086633;28;20221;-72
2021/12/14 00:38:58;;;;;;;20.50;11.90;;;;;;;3.99;100.00;100799.44;5071292;28;20666;-73
2021/12/14 00:41:29;;;;;;;21.77;12.20;;;;;;;4.21;100.00;100794.59;5089508;28;20220;-73
2021/12/14 00:43:57;;;;;;;16.53;10.23;;;;;;;3.93;100.00;100804.22;5087028;28;20248;-72
2021/12/14 00:46:26;;;;;;;20.07;10.90;;;;;;;4.01;100.00;100790.13;5087526;28;20560;-73
2021/12/14 00:48:54;;;;;;;14.70;8.83;;;;;;;4.01;100.00;100795.25;5084688;28;20271;-73
2021/12/14 00:51:27;;;;;;;17.23;10.63;;;;;;;3.73;100.00;100768.94;5073084;28;20191;-73
2021/12/14 00:53:55;;;;;;;19.77;11.90;;;;;;;4.08;100.00;100799.91;5085857;28;20252;-73
2021/12/14 00:56:22;;;;;;;17.53;10.07;;;;;;;4.14;100.00;100795.06;5073763;28;20186;-73
2021/12/14 00:58:49;;;;;;;18.23;9.03;;;;;;;4.17;100.00;100802.06;5081439;28;20202;-73
2021/12/14 01:01:20;;;;;;;18.33;9.07;;;;;;;4.26;100.00;100803.41;5072293;28;20628;-72
2021/12/14 01:03:50;;;;;;;18.20;10.60;;;;;;;4.21;100.00;100807.41;5086570;28;20668;-73
2021/12/14 01:06:18;;;;;;;14.67;9.47;;;;;;;4.17;100.00;100800.38;5072474;28;20672;-72
2021/12/14 01:08:49;;;;;;;13.47;8.53;;;;;;;4.18;100.00;100808.94;5088879;28;20198;-73
2021/12/14 01:11:20;;;;;;;17.87;9.73;;;;;;;3.98;100.00;100803.69;5091464;28;20190;-72
2021/12/14 01:13:56;;;;;;;16.70;10.53;;;;;;;3.87;100.00;100801.34;5091088;28;20197;-73
2021/12/14 01:16:35;;;;;;;16.17;9.27;;;;;;;4.05;100.00;100801.41;5088851;28;20209;-72
2021/12/14 01:19:16;;;;;;;15.10;8.20;;;;;;;3.92;100.00;100802.47;5090157;28;20601;-73
2021/12/14 01:22:10;;;;;;;10.90;8.23;;;;;;;3.91;100.00;100801.59;5083212;28;20198;-73
2021/12/14 01:25:00;;;;;;;11.97;8.00;;;;;;;3.70;100.00;100805.56;5074339;28;20685;-72
2021/12/14 01:27:33;;;;;;;13.30;8.40;;;;;;;3.91;100.00;100800.69;5081961;28;20186;-72
2021/12/14 01:30:05;;;;;;;16.60;9.23;;;;;;;3.96;100.00;100796.69;5094874;28;20664;-73
2021/12/14 01:32:37;;;;;;;14.67;8.17;;;;;;;3.85;100.00;100800.38;5094133;28;20574;-72
2021/12/14 01:35:11;;;;;;;17.80;9.47;;;;;;;3.93;100.00;100799.09;5078170;28;20284;-73
2021/12/14 01:37:44;;;;;;;13.70;8.80;;;;;;;3.94;100.00;100801.75;5077336;28;20194;-71
2021/12/14 01:40:19;;;;;;;14.40;9.03;;;;;;;3.85;100.00;100790.13;5079035;28;20194;-72
2021/12/14 01:42:47;;;;;;;19.40;9.00;;;;;;;3.68;100.00;100807.16;5094526;28;20683;-72
2021/12/14 01:45:17;;;;;;;13.37;8.83;;;;;;;3.93;100.00;100805.09;5094480;28;20280;-74
2021/12/14 01:47:48;;;;;;;4.83;3.57;;;;;;;3.96;100.00;100807.81;5085851;28;20206;-73
2021/12/14 01:50:19;;;;;;;11.43;7.50;;;;;;;3.88;100.00;100811.69;5094428;28;20720;-72
2021/12/14 01:52:46;;;;;;;13.13;8.67;;;;;;;3.72;100.00;100764.63;5083768;28;20206;-72
2021/12/14 01:55:17;;;;;;;25.37;12.53;;;;;;;3.81;100.00;100812.16;5083740;28;20197;-73
2021/12/14 01:57:44;;;;;;;16.87;9.77;;;;;;;4.01;100.00;100802.94;5091949;28;21159;-73
2021/12/14 02:00:15;;;;;;;16.63;10.07;;;;;;;4.02;100.00;100803.81;5077634;28;20689;-73
2021/12/14 02:02:45;;;;;;;13.63;9.37;;;;;;;3.99;100.00;100802.00;5079534;28;20214;-72
2021/12/14 02:05:20;;;;;;;12.53;8.57;;;;;;;3.82;100.00;100805.31;5074155;28;20191;-73
2021/12/14 02:07:48;;;;;;;17.53;8.90;;;;;;;3.97;100.00;100806.16;5090846;28;20707;-72
2021/12/14 02:10:19;;;;;;;16.17;9.93;;;;;;;3.89;100.00;100809.97;5081816;28;20223;-72
2021/12/14 02:12:47;;;;;;;14.03;8.60;;;;;;;3.92;100.00;100802.47;5082292;28;20190;-72
2021/12/14 02:15:17;;;;;;;14.50;9.33;;;;;;;3.97;100.00;100804.47;5074147;28;20248;-72
2021/12/14 02:17:45;;;;;;;13.73;8.47;;;;;;;3.98;100.00;100813.94;5079993;28;20202;-73
2021/12/14 02:20:16;;;;;;;15.33;8.87;;;;;;;3.99;100.00;100809.69;5082102;28;20209;-72
2021/12/14 02:22:44;;;;;;;15.53;10.00;;;;;;;4.10;100.00;100811.13;5093207;28;20194;-73
2021/12/14 02:25:13;;;;;;;54.23;23.43;;;;;;;3.85;100.00;100821.75;5078328;28;20203;-72
2021/12/14 02:27:43;;;;;;;18.47;10.97;;;;;;;3.88;100.00;100816.81;5073623;28;20199;-72
2021/12/14 02:30:16;;;;;;;14.97;10.00;;;;;;;3.85;100.00;100816.63;5080600;28;20241;-73
2021/12/14 02:32:44;;;;;;;44.60;25.00;;;;;;;4.04;100.00;100817.59;5080546;28;20619;-72
2021/12/14 02:35:15;;;;;;;50.90;31.03;;;;;;;4.15;100.00;100812.25;5092772;28;20190;-73
2021/12/14 02:37:46;;;;;;;33.60;20.50;;;;;;;4.17;100.00;100815.78;5093034;28;20668;-73
2021/12/14 02:40:20;;;;;;;58.40;30.77;;;;;;;4.19;100.00;100818.41;5093353;28;20190;-72
2021/12/14 02:42:50;;;;;;;19.67;11.90;;;;;;;4.11;100.00;100827.38;5084192;28;20198;-73
2021/12/14 02:45:20;;;;;;;18.73;11.83;;;;;;;4.00;100.00;100827.72;5074545;28;20195;-73
2021/12/14 02:47:47;;;;;;;20.93;13.23;;;;;;;4.08;100.00;100814.41;5093168;28;20197;-73
2021/12/14 02:50:15;;;;;;;15.80;10.10;;;;;;;4.14;100.00;100832.72;5079181;28;20227;-73
2021/12/14 02:52:42;;;;;;;17.03;11.27;;;;;;;3.96;100.00;100822.34;5082361;28;20195;-72
2021/12/14 02:55:14;;;;;;;80.20;34.77;;;;;;;3.92;100.00;100828.13;5075621;28;20198;-72
2021/12/14 02:57:44;;;;;;;18.70;12.17;;;;;;;3.89;100.00;100822.81;5093366;28;20642;-73
2021/12/14 03:00:15;;;;;;;18.00;11.10;;;;;;;3.93;100.00;100824.75;5092637;28;20202;-73
2021/12/14 03:02:43;;;;;;;17.43;12.10;;;;;;;3.97;100.00;100831.81;5085248;28;20195;-73
2021/12/14 03:05:16;;;;;;;28.57;16.03;;;;;;;3.96;100.00;100827.47;5073541;28;20195;-73
2021/12/14 03:07:48;;;;;;;26.20;14.03;;;;;;;3.99;100.00;100818.25;5073137;28;20286;-73
2021/12/14 03:10:33;;;;;;;40.90;18.93;;;;;;;4.03;100.00;100826.13;5092730;28;20672;-73
2021/12/14 03:13:03;;;;;;;24.37;14.53;;;;;;;3.80;100.00;100827.47;5088258;28;20290;-73
2021/12/14 03:15:35;;;;;;;20.83;12.73;;;;;;;3.92;100.00;100828.13;5092255;28;20248;-72
2021/12/14 03:18:09;;;;;;;21.50;13.23;;;;;;;3.94;100.00;100831.66;5092301;28;20198;-74
2021/12/14 03:20:40;;;;;;;16.00;10.17;;;;;;;3.87;100.00;100832.13;5092305;28;20213;-73
2021/12/14 03:23:10;;;;;;;22.63;11.77;;;;;;;3.83;100.00;100832.75;5081291;28;20195;-73
2021/12/14 03:25:42;;;;;;;27.57;16.23;;;;;;;3.92;100.00;100828.97;5080454;28;20213;-73
2021/12/14 03:28:10;;;;;;;23.50;14.70;;;;;;;3.76;100.00;100828.97;5089638;28;20194;-72
2021/12/14 03:30:44;;;;;;;20.03;10.77;;;;;;;3.81;100.00;100821.53;5092420;28;20214;-72
2021/12/14 03:33:17;;;;;;;15.43;10.20;;;;;;;3.81;100.00;100839.50;5086279;28;20629;-73
2021/12/14 03:35:46;;;;;;;20.77;13.73;;;;;;;3.68;100.00;100816.53;5091929;28;20705;-73
2021/12/14 03:38:18;;;;;;;20.53;13.83;;;;;;;4.02;100.00;100832.94;5072620;28;20195;-72
2021/12/14 03:40:56;;;;;;;23.90;13.97;;;;;;;4.21;100.00;100843.34;5083527;28;20199;-73
2021/12/14 03:43:23;;;;;;;20.07;13.97;;;;;;;4.12;100.00;100842.88;5079595;28;20187;-72
2021/12/14 03:45:50;;;;;;;24.83;15.40;;;;;;;4.15;100.00;100848.16;5079038;28;20240;-73
2021/12/14 03:48:17;;;;;;;18.30;10.43;;;;;;;4.11;100.00;100860.75;5073100;28;20698;-73
2021/12/14 03:50:44;;;;;;;22.17;14.40;;;;;;;4.17;100.00;100850.81;5072099;28;20217;-72
2021/12/14 03:53:13;;;;;;;22.23;14.23;;;;;;;3.98;100.00;100859.22;5072000;28;20195;-72
2021/12/14 03:55:43;;;;;;;88.77;43.47;;;;;;;4.20;100.00;100866.38;5077176;28;20191;-73
2021/12/14 03:58:15;;;;;;;65.17;33.07;;;;;;;4.23;100.00;100862.28;5077569;28;20202;-72
2021/12/14 04:00:45;;;;;;;80.80;42.60;;;;;;;4.28;100.00;100867.69;5082174;28;20681;-73
2021/12/14 04:03:15;;;;;;;27.43;16.13;;;;;;;3.97;100.00;100852.31;5072142;28;20217;-73
2021/12/14 04:05:42;;;;;;;23.07;14.17;;;;;;;3.83;100.00;100873.78;5080854;28;20279;-73
2021/12/14 04:08:09;;;;;;;27.83;17.03;;;;;;;3.93;100.00;100865.78;5074514;28;20198;-73
2021/12/14 04:10:39;;;;;;;25.47;14.23;;;;;;;4.04;100.00;100869.81;5071946;28;20226;-72
2021/12/14 04:13:07;;;;;;;18.30;12.40;;;;;;;4.07;100.00;100872.53;5073569;28;20673;-74
2021/12/14 04:15:36;;;;;;;26.93;16.17;;;;;;;4.05;100.00;100869.03;5076324;28;20255;-72
2021/12/14 04:18:03;;;;;;;22.50;14.60;;;;;;;4.01;100.00;100874.78;5075216;28;20187;-72
2021/12/14 04:20:34;;;;;;;18.87;11.73;;;;;;;4.07;100.00;100869.97;5078417;28;20221;-72
2021/12/14 04:23:04;;;;;;;30.00;18.13;;;;;;;4.10;100.00;100870.16;5078867;28;20194;-73
2021/12/14 04:25:34;;;;;;;26.40;14.67;;;;;;;4.26;100.00;100872.72;5081675;28;20198;-74
2021/12/14 04:28:06;;;;;;;28.30;15.80;;;;;;;4.10;100.00;100875.28;5072792;28;20622;-74
2021/12/14 04:30:36;;;;;;;29.70;12.93;;;;;;;4.15;100.00;100873.84;5071561;28;20237;-74
2021/12/14 04:33:05;;;;;;;24.17;14.37;;;;;;;4.16;100.00;100880.75;5072267;28;20750;-72
2021/12/14 04:35:33;;;;;;;20.93;12.23;;;;;;;4.19;100.00;100885.13;5071194;28;20233;-73
2021/12/14 04:38:07;;;;;;;19.73;12.70;;;;;;;4.13;100.00;100895.97;5086337;28;20614;-73
2021/12/14 04:51:56;;;;;;;25.43;15.07;;;;;;;4.14;100.00;100886.59;5088790;28;20247;-72
2021/12/14 04:52:00;;;;;;;23.87;13.30;;;;;;;4.19;100.00;100901.44;5070333;28;20304;-73
2021/12/14 04:54:29;;;;;;;23.97;14.57;;;;;;;4.03;100.00;100896.28;5071587;28;20198;-72
2021/12/14 04:56:57;;;;;;;58.90;23.97;;;;;;;4.25;100.00;100901.75;5073010;28;20625;-73
2021/12/14 04:59:27;;;;;;;77.23;31.40;;;;;;;4.32;100.00;100898.69;5075005;28;20191;-74
2021/12/14 05:02:00;;;;;;;53.23;22.67;;;;;;;4.27;100.00;100871.94;5074865;28;20277;-73
2021/12/14 05:04:28;;;;;;;38.57;17.97;;;;;;;4.46;100.00;100908.00;5074443;28;20666;-73
2021/12/14 05:07:04;;;;;;;33.63;18.83;;;;;;;4.48;100.00;100910.66;5074691;28;20225;-73
2021/12/14 05:09:33;;;;;;;34.63;18.00;;;;;;;4.50;100.00;100907.38;5074702;28;20198;-73
2021/12/14 05:12:05;;;;;;;27.33;16.83;;;;;;;4.53;100.00;100918.63;5074787;28;20311;-73
2021/12/14 05:14:35;;;;;;;25.53;15.80;;;;;;;4.53;100.00;100921.19;5074690;28;20202;-73
2021/12/14 05:17:07;;;;;;;28.60;15.53;;;;;;;4.43;100.00;100912.97;5074470;28;20198;-73
2021/12/14 05:19:36;;;;;;;35.30;23.13;;;;;;;4.60;100.00;100925.84;5074119;28;20218;-72
2021/12/14 05:22:06;;;;;;;38.50;24.43;;;;;;;4.58;100.00;100924.84;5073396;28;20187;-72
2021/12/14 05:24:33;;;;;;;36.03;21.27;;;;;;;4.50;100.00;100922.78;5087970;28;20209;-73
2021/12/14 05:27:03;;;;;;;82.23;50.43;;;;;;;4.52;100.00;100921.97;5087413;28;20195;-72
2021/12/14 05:29:31;;;;;;;47.73;25.20;;;;;;;4.14;100.00;100860.94;5074431;28;20199;-71
2021/12/14 05:32:01;;;;;;;35.43;20.50;;;;;;;4.58;100.00;100914.59;5074159;28;20219;-74
2021/12/14 05:34:30;;;;;;;45.90;26.83;;;;;;;4.82;100.00;100932.13;5075505;28;20932;-72
2021/12/14 05:36:58;;;;;;;49.63;30.73;;;;;;;4.84;100.00;100932.22;5093632;28;20286;-75
2021/12/14 05:39:44;;;;;;;89.67;51.27;;;;;;;4.82;100.00;100939.84;5074472;28;20195;-74
2021/12/14 05:44:56;;;;;;;88.40;43.87;;;;;;;4.85;100.00;100955.41;5074516;28;20205;-74
2021/12/14 05:47:23;;;;;;;61.17;31.23;;;;;;;4.79;100.00;100952.53;5086944;28;20187;-72
2021/12/14 05:49:51;;;;;;;43.60;18.90;;;;;;;4.76;100.00;100961.78;5074441;28;20330;-72
2021/12/14 05:52:22;;;;;;;47.10;24.57;;;;;;;4.68;100.00;100966.50;5073509;28;20229;-73
2021/12/14 05:54:50;;;;;;;30.90;18.13;;;;;;;4.45;100.00;100967.00;5074216;28;20669;-74
2021/12/14 05:57:20;;;;;;;29.00;15.80;;;;;;;4.32;100.00;100955.16;5083895;28;20239;-72
2021/12/14 05:59:48;;;;;;;24.57;16.00;;;;;;;4.31;100.00;100968.81;5082859;28;20194;-77
2021/12/14 06:02:16;;;;;;;25.47;14.40;;;;;;;5.10;100.00;100949.84;5085072;28;20637;-75
2021/12/14 06:04:47;;;;;;;30.73;16.63;;;;;;;4.72;100.00;100962.41;5094105;28;20322;-73
2021/12/14 06:07:17;;;;;;;30.13;17.07;;;;;;;4.41;100.00;100955.69;5089440;28;20191;-73
2021/12/14 06:09:46;;;;;;;22.20;12.23;;;;;;;4.31;100.00;100973.06;5092665;28;20198;-72
2021/12/14 06:12:18;;;;;;;21.90;11.37;;;;;;;3.79;100.00;100918.00;5087405;28;20700;-74
2021/12/14 06:14:51;;;;;;;23.93;12.70;;;;;;;3.94;100.00;100963.38;5074074;28;20199;-72
2021/12/14 06:17:23;;;;;;;36.03;16.43;;;;;;;3.94;100.00;100962.47;5079903;28;20194;-72
2021/12/14 06:19:53;;;;;;;66.37;23.93;;;;;;;3.80;100.00;100977.09;5092207;28;20305;-74
2021/12/14 06:22:24;;;;;;;43.47;19.47;;;;;;;3.88;100.00;100974.97;5072641;28;20187;-72
2021/12/14 06:24:53;;;;;;;53.67;23.40;;;;;;;3.70;100.00;100989.31;5074683;28;20195;-71
2021/12/14 06:27:23;;;;;;;63.47;24.73;;;;;;;3.78;100.00;100978.69;5080561;28;20190;-72
2021/12/14 06:29:54;;;;;;;63.80;27.07;;;;;;;3.80;100.00;100976.22;5085074;28;20201;-71
2021/12/14 06:32:23;;;;;;;35.47;18.10;;;;;;;3.82;100.00;100980.63;5079939;28;20233;-74
2021/12/14 06:34:52;;;;;;;36.30;17.73;;;;;;;3.87;100.00;100970.63;5091394;28;20229;-72
2021/12/14 06:38:09;;;;;;;30.33;15.03;;;;;;;3.94;100.00;100980.44;5077762;28;20198;-72
2021/12/14 06:40:40;;;;;;;22.37;12.30;;;;;;;4.01;100.00;100979.97;5078915;28;20194;-73
2021/12/14 06:43:13;;;;;;;29.83;15.47;;;;;;;4.00;100.00;100980.75;5093090;28;20195;-72
2021/12/14 06:45:43;;;;;;;21.80;11.50;;;;;;;3.98;100.00;100993.53;5091536;28;20185;-77
2021/12/14 06:48:13;;;;;;;23.27;13.07;;;;;;;3.87;100.00;100993.72;5090577;28;20190;-72
2021/12/14 06:50:43;;;;;;;23.67;13.47;;;;;;;3.88;100.00;100957.00;5083751;28;20261;-73
2021/12/14 06:53:15;;;;;;;101.77;43.17;;;;;;;4.26;100.00;100993.34;5088573;28;20198;-72
2021/12/14 06:55:42;;;;;;;26.03;14.03;;;;;;;4.00;100.00;100996.16;5089293;28;20674;-72
2021/12/14 06:58:12;;;;;;;58.77;24.03;;;;;;;3.97;100.00;101006.25;5074203;28;20572;-73
2021/12/14 07:00:46;;;;;;;37.97;17.77;;;;;;;4.06;100.00;101004.22;5072587;28;20206;-74
2021/12/14 07:03:13;;;;;;;138.47;51.37;;;;;;;4.37;100.00;100994.81;5079052;28;20584;-76
2021/12/14 07:05:42;;;;;;;60.13;25.47;;;;;;;4.21;100.00;101002.47;5092384;28;20570;-73
2021/12/14 07:08:15;;;;;;;30.80;16.23;;;;;;;3.81;100.00;100988.25;5074024;28;20695;-73
2021/12/14 07:10:44;;;;;;;28.43;15.70;;;;;;;4.00;100.00;101011.56;5077531;28;20224;-76
2021/12/14 07:13:17;;;;;;;28.73;15.63;;;;;;;3.84;100.00;101003.81;5092883;28;20207;-75
2021/12/14 07:15:45;;;;;;;29.70;15.60;;;;;;;3.98;100.00;101008.91;5076268;28;20199;-74
2021/12/14 07:18:12;;;;;;;31.60;16.77;;;;;;;4.04;100.00;101012.59;5090843;28;20198;-75
2021/12/14 07:20:42;;;;;;;111.50;48.87;;;;;;;4.04;100.00;101010.94;5090908;28;20218;-73
2021/12/14 07:23:28;;;;;;;106.83;53.33;;;;;;;3.96;100.00;101007.03;5076108;28;20267;-73
2021/12/14 07:26:02;;;;;;;72.93;37.67;;;;;;;4.20;100.00;101005.84;5080529;28;20360;-74
2021/12/14 07:28:32;;;;;;;42.07;20.73;;;;;;;4.32;100.00;101006.50;5084734;28;20197;-73
2021/12/14 07:31:02;;;;;;;43.37;21.63;;;;;;;4.27;100.00;100995.13;5081733;28;20222;-73
2021/12/14 07:33:31;;;;;;;30.10;15.33;;;;;;;4.40;100.00;101009.50;5091899;28;20201;-72
2021/12/14 07:36:00;;;;;;;39.13;20.87;;;;;;;4.55;100.00;101007.75;5092081;28;20284;-73
2021/12/14 07:38:35;;;;;;;26.07;15.47;;;;;;;4.65;100.00;101012.59;5092451;28;20198;-72
2021/12/14 07:41:08;;;;;;;33.83;18.57;;;;;;;4.58;100.00;101017.31;5090195;28;20278;-74
2021/12/14 07:43:38;;;;;;;25.53;14.10;;;;;;;4.54;100.00;101021.41;5072292;28;20191;-75
2021/12/14 07:46:15;;;;;;;31.47;15.87;;;;;;;3.68;100.00;100947.31;5075171;28;20628;-74
2021/12/14 07:48:45;;;;;;;26.53;14.90;;;;;;;4.40;100.00;101025.78;5085398;28;20632;-75
2021/12/14 07:51:17;;;;;;;27.47;14.23;;;;;;;4.37;100.00;101025.63;5090992;28;20225;-72
2021/12/14 07:53:49;;;;;;;24.97;13.10;;;;;;;4.31;100.00;101034.69;5089977;28;20993;-73
2021/12/14 07:56:28;;;;;;;32.57;14.40;;;;;;;3.75;100.00;100977.63;5073773;28;20203;-73
2021/12/14 07:58:57;;;;;;;25.07;15.67;;;;;;;4.08;100.00;101041.09;5090772;28;20729;-73
2021/12/14 08:01:23;;;;;;;53.20;21.70;;;;;;;4.03;100.00;101028.81;5090208;28;20251;-73
2021/12/14 08:03:59;;;;;;;49.63;16.97;;;;;;;4.20;100.00;101052.06;5085696;28;20191;-74
2021/12/14 08:06:26;;;;;;;70.37;22.33;;;;;;;3.95;100.00;101054.94;5071638;28;20285;-73
2021/12/14 08:08:56;;;;;;;29.13;15.40;;;;;;;3.95;100.00;101054.94;5071917;28;20199;-72
2021/12/14 08:14:16;;;;;;;25.90;13.83;;;;;;;3.99;100.00;101061.13;5071949;28;20304;-72
2021/12/14 08:16:46;;;;;;;26.30;14.80;;;;;;;4.02;100.00;101056.16;5080263;28;20198;-73
2021/12/14 08:19:15;;;;;;;22.77;13.53;;;;;;;3.72;100.00;101060.41;5083535;28;20252;-73
2021/12/14 08:21:44;;;;;;;29.13;14.70;;;;;;;3.78;100.00;101054.78;5087818;28;20186;-75
2021/12/14 08:24:13;;;;;;;26.73;15.87;;;;;;;3.90;100.00;101063.16;5091304;28;20281;-75
2021/12/14 08:26:43;;;;;;;14.27;10.03;;;;;;;3.74;100.00;101057.94;5091765;28;20302;-74
2021/12/14 08:29:15;;;;;;;22.00;11.37;;;;;;;3.82;100.00;101057.56;5091759;28;20205;-73
2021/12/14 08:31:46;;;;;;;17.83;10.43;;;;;;;3.46;100.00;101068.28;5092939;28;20643;-73
2021/12/14 08:34:18;;;;;;;27.07;14.03;;;;;;;3.26;100.00;101061.97;5095728;28;20206;-74
2021/12/14 08:36:48;;;;;;;67.17;25.40;;;;;;;3.49;100.00;101061.66;5083677;28;20640;-73
2021/12/14 08:39:20;;;;;;;157.87;49.50;;;;;;;3.71;100.00;101057.78;5084312;28;20189;-74
2021/12/14 08:41:52;;;;;;;108.33;39.37;;;;;;;3.79;100.00;101051.38;5091643;28;20680;-74
2021/12/14 08:44:33;;;;;;;59.27;24.87;;;;;;;3.74;100.00;101052.81;5087483;28;20281;-73
2021/12/14 08:47:01;;;;;;;58.13;23.30;;;;;;;3.70;100.00;101050.88;5075250;28;20251;-74
2021/12/14 08:49:28;;;;;;;45.73;21.13;;;;;;;3.85;100.00;101052.63;5075404;28;20198;-72
2021/12/14 08:51:54;;;;;;;120.80;57.20;;;;;;;4.20;100.00;101039.22;5074455;28;20222;-72
2021/12/14 08:54:26;;;;;;;47.10;24.43;;;;;;;4.28;100.00;101037.94;5075284;28;20198;-73
2021/12/14 08:56:56;;;;;;;36.17;18.87;;;;;;;4.61;100.00;101032.88;5078216;28;20194;-72
2021/12/14 08:59:23;;;;;;;24.37;12.23;;;;;;;5.23;100.00;101015.63;5095850;28;20638;-72
2021/12/14 09:01:51;;;;;;;19.37;12.40;;;;;;;4.69;100.00;101014.50;5093401;28;20205;-72
2021/12/14 09:04:21;;;;;;;38.07;19.27;;;;;;;4.68;100.00;101017.00;5095283;28;20198;-73
2021/12/14 09:06:52;;;;;;;44.90;23.83;;;;;;;4.63;100.00;101021.03;5094896;28;20198;-72
2021/12/14 09:09:21;;;;;;;24.73;13.87;;;;;;;4.63;100.00;101031.28;5079399;28;20269;-73
2021/12/14 09:11:56;;;;;;;22.37;12.00;;;;;;;4.60;100.00;101034.59;5075697;28;20238;-74
2021/12/14 09:14:24;;;;;;;20.73;11.27;;;;;;;4.48;100.00;101034.81;5074790;28;20665;-73
2021/12/14 09:16:57;;;;;;;26.57;15.60;;;;;;;4.20;100.00;101005.84;5075920;28;20199;-73
2021/12/14 09:19:27;;;;;;;49.83;25.07;;;;;;;4.40;100.00;101030.94;5074667;28;20381;-73
2021/12/14 09:21:57;;;;;;;27.50;14.80;;;;;;;4.40;100.00;101020.66;5073763;28;20187;-73
2021/12/14 09:24:33;;;;;;;29.03;16.53;;;;;;;4.14;100.00;101013.19;5083889;28;20201;-73
2021/12/14 09:27:05;;;;;;;23.97;13.40;;;;;;;4.25;100.00;101030.06;5083516;28;20206;-72
2021/12/14 09:29:33;;;;;;;28.23;15.53;;;;;;;4.30;100.00;101044.06;5080065;28;20218;-73
2021/12/14 09:32:03;;;;;;;23.17;13.57;;;;;;;4.30;100.00;101038.94;5073921;28;20708;-72
2021/12/14 09:34:33;;;;;;;31.73;14.43;;;;;;;4.27;100.00;101028.50;5084766;28;20637;-72
2021/12/14 09:37:02;;;;;;;50.27;26.73;;;;;;;4.25;100.00;101030.06;5089859;28;20222;-72
2021/12/14 09:39:32;;;;;;;28.90;16.87;;;;;;;4.16;100.00;101023.56;5087291;28;20630;-72
2021/12/14 09:42:05;;;;;;;26.90;14.80;;;;;;;4.37;100.00;101027.31;5093615;28;20198;-72
2021/12/14 09:44:34;;;;;;;32.53;15.00;;;;;;;4.43;100.00;101018.25;5080156;28;20194;-72
2021/12/14 09:47:06;;;;;;;23.50;12.43;;;;;;;4.66;100.00;101018.59;5094316;28;20190;-72
2021/12/14 09:49:33;;;;;;;38.43;20.00;;;;;;;4.41;100.00;101012.16;5094102;28;20696;-72
2021/12/14 09:52:03;;;;;;;22.57;13.10;;;;;;;4.39;100.00;101013.75;5092877;28;20249;-73
2021/12/14 09:54:32;;;;;;;184.20;84.17;;;;;;;4.50;100.00;101009.19;5083708;28;20217;-73
2021/12/14 09:57:02;;;;;;;23.27;13.37;;;;;;;4.61;100.00;101014.91;5083452;28;20203;-72
2021/12/14 09:59:30;;;;;;;23.87;13.93;;;;;;;4.57;100.00;101007.81;5073508;28;20195;-73
2021/12/14 10:02:04;;;;;;;32.37;16.90;;;;;;;4.63;100.00;101015.88;5073665;28;20199;-72
2021/12/14 10:04:34;;;;;;;28.60;15.73;;;;;;;4.63;100.00;101010.75;5073516;28;20202;-72
2021/12/14 10:07:03;;;;;;;25.30;13.43;;;;;;;4.46;100.00;101008.13;5073464;28;20217;-72
2021/12/14 10:09:42;;;;;;;22.87;14.90;;;;;;;4.34;100.00;100999.78;5092590;28;20361;-72
2021/12/14 10:12:19;;;;;;;46.50;21.90;;;;;;;4.49;100.00;100999.75;5073149;28;20226;-70
2021/12/14 10:14:50;;;;;;;49.83;28.50;;;;;;;4.32;100.00;101011.63;5073782;28;20285;-73
2021/12/14 10:17:20;;;;;;;48.47;28.60;;;;;;;4.50;100.00;101012.63;5091970;28;20198;-72
2021/12/14 10:19:49;;;;;;;42.80;24.77;;;;;;;4.34;100.00;101010.06;5092650;28;20214;-71
2021/12/14 10:22:21;;;;;;;22.90;12.40;;;;;;;4.36;100.00;101011.00;5072221;28;20199;-72
2021/12/14 10:24:48;;;;;;;34.03;18.90;;;;;;;4.39;100.00;101008.59;5073405;28;20229;-75
2021/12/14 10:27:19;;;;;;;28.07;14.67;;;;;;;4.25;100.00;101001.84;5074027;28;20230;-73
2021/12/14 10:29:47;;;;;;;29.17;13.47;;;;;;;4.38;100.00;101018.81;5073534;28;20202;-73
2021/12/14 10:32:17;;;;;;;26.40;12.07;;;;;;;4.31;100.00;101015.03;5093039;28;20314;-72
2021/12/14 10:34:47;;;;;;;29.07;13.77;;;;;;;4.43;100.00;101014.78;5075152;28;20195;-73
2021/12/14 10:37:22;;;;;;;35.80;17.23;;;;;;;4.54;100.00;101002.53;5072467;28;20242;-74
2021/12/14 10:45:37;;;;;;;33.40;15.60;;;;;;;4.81;100.00;101009.16;5049844;28;20282;-71
2021/12/14 10:48:04;;;;;;;22.70;12.77;;;;;;;5.28;100.00;100999.59;5050205;28;20778;-75
2021/12/14 10:50:32;;;;;;;32.20;16.50;;;;;;;5.27;100.00;100982.44;5069556;28;20584;-75
2021/12/14 10:53:00;;;;;;;31.23;17.03;;;;;;;5.00;100.00;100986.16;5088828;28;20221;-73
2021/12/14 10:55:31;;;;;;;24.43;13.57;;;;;;;4.41;100.00;100981.34;5072377;28;20203;-73
2021/12/14 10:57:59;;;;;;;22.97;13.87;;;;;;;4.35;100.00;100996.41;5089188;28;20741;-74
2021/12/14 11:00:31;;;;;;;28.67;14.37;;;;;;;4.48;100.00;100992.84;5093025;28;20204;-75
2021/12/14 11:03:04;;;;;;;27.10;14.60;;;;;;;4.26;100.00;100975.38;5091557;28;20285;-76
2021/12/14 11:05:33;;;;;;;29.90;18.20;;;;;;;4.41;100.00;100996.75;5086931;28;20235;-75
2021/12/14 11:08:01;;;;;;;37.07;19.73;;;;;;;4.47;100.00;100986.81;5083793;28;20206;-75
2021/12/14 11:10:32;;;;;;;69.60;33.63;;;;;;;4.36;100.00;100993.03;5072509;28;20218;-74
2021/12/14 11:13:02;;;;;;;51.00;26.00;;;;;;;4.28;100.00;100996.88;5071919;28;20588;-75
2021/12/14 11:15:35;;;;;;;36.53;18.33;;;;;;;4.68;100.00;100991.31;5072338;28;20198;-75
2021/12/14 11:18:08;;;;;;;24.57;12.67;;;;;;;4.56;100.00;100998.38;5085838;28;20194;-73
2021/12/14 11:20:39;;;;;;;22.90;13.13;;;;;;;4.33;100.00;100990.31;5092442;28;20218;-74
2021/12/14 11:23:11;;;;;;;24.80;14.73;;;;;;;4.41;100.00;101001.91;5078830;28;20187;-75
2021/12/14 11:25:46;;;;;;;29.20;15.83;;;;;;;4.18;100.00;100989.47;5071906;28;20294;-72
2021/12/14 11:28:17;;;;;;;26.80;15.40;;;;;;;4.08;100.00;100984.66;5072996;28;20247;-75
2021/12/14 11:30:47;;;;;;;25.97;13.97;;;;;;;3.95;100.00;100946.28;5087905;28;20628;-75
2021/12/14 11:33:21;;;;;;;22.57;13.93;;;;;;;4.14;100.00;100984.97;5077425;28;20221;-76
2021/12/14 11:35:54;;;;;;;87.03;41.73;;;;;;;4.24;100.00;100984.69;5073318;28;20230;-73
2021/12/14 11:38:31;;;;;;;54.40;27.93;;;;;;;4.26;100.00;100982.19;5078015;28;20194;-74
2021/12/14 11:40:59;;;;;;;26.17;16.50;;;;;;;4.36;100.00;100990.47;5070791;28;20190;-75
2021/12/14 11:43:30;;;;;;;18.00;12.63;;;;;;;4.10;100.00;100983.06;5072201;28;20195;-73
2021/12/14 11:45:57;;;;;;;26.37;14.17;;;;;;;4.08;100.00;100987.22;5071209;28;20195;-74